createdAt,value
2018-07-14T00:01:39.189Z,6.10
2018-07-14T00:04:08.294Z,7.67
2018-07-14T00:06:37.589Z,8.30
2018-07-14T00:09:06.947Z,9.13
2018-07-14T00:11:36.176Z,7.50
2018-07-14T00:14:05.153Z,7.67
2018-07-14T00:16:34.112Z,6.73
2018-07-14T00:19:03.413Z,7.07
2018-07-14T00:21:32.577Z,6.60
2018-07-14T00:24:01.619Z,6.00
2018-07-14T00:26:30.818Z,7.10
2018-07-14T00:28:59.941Z,7.43
2018-07-14T00:31:29.179Z,7.70
2018-07-14T00:33:58.254Z,9.33
2018-07-14T00:36:27.335Z,8.53
2018-07-14T00:38:56.646Z,7.40
2018-07-14T00:41:25.420Z,8.00
2018-07-14T00:43:54.470Z,7.23
2018-07-14T00:46:23.583Z,7.70
2018-07-14T00:48:52.345Z,7.27
2018-07-14T00:51:21.236Z,7.67
2018-07-14T00:53:50.289Z,6.53
2018-07-14T00:56:19.319Z,7.13
2018-07-14T00:58:48.356Z,7.83
2018-07-14T01:01:19.032Z,6.87
2018-07-14T01:03:48.605Z,6.77
2018-07-14T01:06:18.878Z,7.77
2018-07-14T01:08:49.318Z,7.20
2018-07-14T01:11:19.010Z,7.23
2018-07-14T01:13:48.783Z,9.37
2018-07-14T01:16:18.318Z,9.90
2018-07-14T01:18:48.049Z,8.43
2018-07-14T01:21:17.197Z,7.87
2018-07-14T01:23:46.755Z,8.70
2018-07-14T01:26:16.116Z,8.20
2018-07-14T01:28:45.705Z,8.23
2018-07-14T01:31:15.556Z,6.90
2018-07-14T01:33:45.245Z,8.73
2018-07-14T01:36:14.390Z,8.23
2018-07-14T01:38:43.984Z,9.20
2018-07-14T01:41:13.946Z,11.17
2018-07-14T01:43:43.653Z,10.97
2018-07-14T01:46:13.601Z,10.77
2018-07-14T01:48:43.332Z,10.00
2018-07-14T01:51:12.464Z,8.17
2018-07-14T01:53:41.706Z,9.23
2018-07-14T01:56:11.153Z,8.67
2018-07-14T01:58:40.309Z,8.50
2018-07-14T02:01:09.818Z,8.57
2018-07-14T02:03:39.858Z,8.00
2018-07-14T02:06:09.805Z,9.47
2018-07-14T02:08:39.662Z,10.13
2018-07-14T02:11:09.530Z,10.27
2018-07-14T02:13:39.264Z,9.33
2018-07-14T02:16:08.488Z,10.13
2018-07-14T02:18:37.576Z,9.60
2018-07-14T02:21:07.172Z,10.57
2018-07-14T02:23:36.388Z,8.60
2018-07-14T02:26:05.561Z,8.07
2018-07-14T02:28:34.895Z,7.53
2018-07-14T02:31:04.085Z,8.27
2018-07-14T02:33:33.067Z,6.43
2018-07-14T02:36:01.927Z,6.70
2018-07-14T02:38:30.886Z,7.20
2018-07-14T02:41:00.259Z,6.57
2018-07-14T02:43:29.435Z,7.83
2018-07-14T02:45:58.608Z,7.60
2018-07-14T02:48:27.722Z,8.50
2018-07-14T02:50:56.587Z,7.03
2018-07-14T02:53:25.287Z,7.27
2018-07-14T02:55:54.312Z,8.10
2018-07-14T02:58:23.504Z,9.97
2018-07-14T03:00:52.594Z,8.97
2018-07-14T03:03:21.776Z,9.13
2018-07-14T03:05:50.958Z,9.70
2018-07-14T03:08:20.118Z,8.87
2018-07-14T03:10:49.038Z,9.07
2018-07-14T03:13:17.706Z,7.73
2018-07-14T03:15:46.757Z,9.70
2018-07-14T03:18:16.246Z,8.10
2018-07-14T03:20:45.282Z,8.47
2018-07-14T03:23:14.479Z,7.90
2018-07-14T03:25:43.630Z,7.50
2018-07-14T03:28:12.844Z,6.43
2018-07-14T03:30:41.993Z,7.70
2018-07-14T03:33:11.163Z,7.87
2018-07-14T03:35:40.181Z,8.93
2018-07-14T03:38:09.331Z,8.60
2018-07-14T03:40:38.059Z,9.13
2018-07-14T03:43:07.146Z,9.63
2018-07-14T03:45:36.262Z,9.00
2018-07-14T03:48:04.966Z,8.23
2018-07-14T03:50:33.909Z,8.77
2018-07-14T03:53:02.967Z,7.03
2018-07-14T03:55:32.315Z,6.23
2018-07-14T03:58:01.615Z,8.37
2018-07-14T04:00:30.850Z,9.27
2018-07-14T04:02:59.950Z,8.70
2018-07-14T04:05:29.264Z,8.53
2018-07-14T04:07:58.557Z,8.77
2018-07-14T04:10:27.683Z,9.17
2018-07-14T04:12:57.128Z,9.43
2018-07-14T04:15:26.292Z,8.37
2018-07-14T04:18:00.889Z,8.33
2018-07-14T04:20:30.093Z,8.27
2018-07-14T04:22:59.573Z,7.83
2018-07-14T04:25:28.755Z,7.90
2018-07-14T04:27:58.296Z,7.20
2018-07-14T04:30:27.456Z,7.80
2018-07-14T04:32:56.525Z,7.40
2018-07-14T04:35:26.079Z,6.33
2018-07-14T04:37:55.218Z,7.43
2018-07-14T04:40:24.380Z,6.77
2018-07-14T04:42:53.547Z,6.93
2018-07-14T04:45:22.749Z,7.67
2018-07-14T04:47:51.863Z,6.10
2018-07-14T04:50:21.018Z,7.00
2018-07-14T04:52:50.133Z,6.90
2018-07-14T04:55:19.347Z,5.90
2018-07-14T04:57:48.700Z,6.80
2018-07-14T05:00:17.927Z,6.50
2018-07-14T05:02:47.198Z,6.80
2018-07-14T05:05:16.140Z,6.83
2018-07-14T05:07:45.130Z,6.40
2018-07-14T05:10:14.289Z,5.73
2018-07-14T05:12:43.159Z,6.33
2018-07-14T05:15:12.350Z,5.57
2018-07-14T05:17:41.604Z,5.77
2018-07-14T05:20:10.884Z,6.10
2018-07-14T05:22:40.130Z,6.27
2018-07-14T05:25:09.539Z,6.37
2018-07-14T05:27:38.765Z,6.00
2018-07-14T05:30:08.087Z,5.77
2018-07-14T05:32:37.130Z,5.70
2018-07-14T05:35:06.396Z,6.60
2018-07-14T05:37:35.766Z,5.97
2018-07-14T05:40:05.319Z,5.77
2018-07-14T05:42:34.443Z,6.27
2018-07-14T05:45:03.402Z,5.33
2018-07-14T05:47:32.579Z,5.60
2018-07-14T05:50:02.426Z,5.37
2018-07-14T05:52:31.755Z,6.00
2018-07-14T05:55:01.116Z,5.28
2018-07-14T05:57:30.305Z,4.83
2018-07-14T05:59:59.640Z,5.50
2018-07-14T06:02:28.690Z,5.15
2018-07-14T06:04:57.697Z,5.62
2018-07-14T06:07:26.857Z,4.92
2018-07-14T06:09:55.619Z,5.58
2018-07-14T06:12:24.531Z,5.03
2018-07-14T06:14:53.585Z,4.95
2018-07-14T06:17:22.705Z,6.17
2018-07-14T06:19:51.658Z,5.37
2018-07-14T06:22:20.788Z,4.65
2018-07-14T06:24:50.062Z,5.30
2018-07-14T06:27:19.272Z,4.37
2018-07-14T06:29:48.386Z,5.05
2018-07-14T06:32:17.560Z,5.20
2018-07-14T06:34:46.623Z,4.92
2018-07-14T06:37:15.915Z,4.08
2018-07-14T06:39:44.939Z,4.37
2018-07-14T06:42:14.105Z,5.72
2018-07-14T06:44:43.114Z,5.10
2018-07-14T06:47:12.063Z,4.55
2018-07-14T06:49:41.348Z,4.25
2018-07-14T06:52:10.649Z,4.90
2018-07-14T06:54:39.876Z,4.40
2018-07-14T06:57:09.104Z,5.28
2018-07-14T06:59:38.165Z,5.25
2018-07-14T07:02:07.425Z,5.12
2018-07-14T07:04:36.695Z,4.80
2018-07-14T07:07:05.955Z,6.03
2018-07-14T07:09:35.233Z,4.30
2018-07-14T07:12:04.467Z,4.78
2018-07-14T07:14:33.836Z,5.35
2018-07-14T07:17:03.060Z,5.05
2018-07-14T07:19:32.373Z,4.40
2018-07-14T07:22:01.746Z,4.72
2018-07-14T07:24:30.932Z,4.72
2018-07-14T07:27:00.068Z,4.65
2018-07-14T07:29:29.441Z,4.40
2018-07-14T07:31:58.565Z,4.70
2018-07-14T07:34:27.829Z,4.87
2018-07-14T07:36:57.123Z,4.20
2018-07-14T07:42:25.759Z,3.92
2018-07-14T07:44:54.747Z,4.65
2018-07-14T07:47:23.891Z,4.42
2018-07-14T07:49:52.763Z,5.17
2018-07-14T07:52:21.879Z,4.80
2018-07-14T07:54:51.057Z,4.60
2018-07-14T07:57:20.186Z,4.67
2018-07-14T07:59:49.519Z,4.50
2018-07-14T08:02:18.812Z,4.15
2018-07-14T08:04:48.164Z,4.67
2018-07-14T08:07:17.450Z,4.62
2018-07-14T08:09:46.708Z,4.10
2018-07-14T08:12:15.874Z,4.60
2018-07-14T08:14:45.034Z,4.08
2018-07-14T08:17:14.256Z,4.10
2018-07-14T08:19:43.523Z,4.12
2018-07-14T08:22:12.772Z,3.83
2018-07-14T08:24:42.042Z,4.37
2018-07-14T08:27:11.231Z,4.22
2018-07-14T08:29:40.312Z,3.98
2018-07-14T08:32:09.220Z,3.77
2018-07-14T08:34:38.300Z,4.10
2018-07-14T08:37:07.769Z,3.62
2018-07-14T08:39:37.281Z,3.87
2018-07-14T08:42:06.781Z,3.72
2018-07-14T08:44:35.963Z,3.58
2018-07-14T08:47:05.112Z,3.62
2018-07-14T08:49:34.116Z,4.87
2018-07-14T08:52:03.392Z,3.42
2018-07-14T08:54:32.509Z,3.72
2018-07-14T08:58:04.164Z,4.33
2018-07-14T09:00:33.359Z,3.90
2018-07-14T09:03:02.511Z,3.83
2018-07-14T09:05:31.646Z,3.98
2018-07-14T09:11:32.594Z,3.77
2018-07-14T09:14:01.524Z,3.42
2018-07-14T09:16:30.665Z,3.25
2018-07-14T09:18:59.607Z,3.77
2018-07-14T09:21:28.631Z,3.52
2018-07-14T09:23:57.797Z,4.08
2018-07-14T09:26:26.542Z,4.10
2018-07-14T09:28:55.447Z,4.15
2018-07-14T09:31:24.564Z,3.27
2018-07-14T09:33:53.408Z,3.62
2018-07-14T09:36:22.292Z,3.17
2018-07-14T09:38:51.276Z,4.00
2018-07-14T09:41:20.304Z,3.52
2018-07-14T09:43:49.062Z,3.70
2018-07-14T09:46:17.920Z,3.40
2018-07-14T09:48:46.889Z,4.10
2018-07-14T09:51:15.732Z,3.75
2018-07-14T09:53:44.677Z,3.22
2018-07-14T09:56:13.905Z,3.17
2018-07-14T09:58:43.078Z,2.83
2018-07-14T10:01:12.280Z,3.45
2018-07-14T10:03:41.542Z,3.05
2018-07-14T10:06:10.575Z,3.37
2018-07-14T10:08:39.611Z,3.20
2018-07-14T10:11:09.028Z,3.08
2018-07-14T10:13:38.175Z,3.12
2018-07-14T10:16:07.200Z,3.20
2018-07-14T10:18:36.326Z,3.27
2018-07-14T10:21:05.514Z,3.00
2018-07-14T10:23:34.679Z,3.12
2018-07-14T10:26:03.806Z,3.37
2018-07-14T10:28:33.872Z,2.92
2018-07-14T10:31:03.236Z,3.72
2018-07-14T10:33:32.585Z,3.45
2018-07-14T10:36:01.879Z,3.50
2018-07-14T10:38:30.930Z,3.10
2018-07-14T10:41:00.128Z,3.00
2018-07-14T10:43:29.125Z,3.62
2018-07-14T10:45:58.212Z,2.90
2018-07-14T10:48:27.131Z,2.92
2018-07-14T10:50:56.231Z,3.17
2018-07-14T10:53:25.328Z,3.25
2018-07-14T10:55:54.470Z,3.05
2018-07-14T10:58:23.394Z,2.90
2018-07-14T11:00:52.511Z,2.70
2018-07-14T11:03:21.584Z,3.12
2018-07-14T11:05:50.557Z,2.60
2018-07-14T11:08:19.725Z,3.08
2018-07-14T11:10:49.119Z,3.15
2018-07-14T11:13:18.405Z,3.10
2018-07-14T11:15:47.553Z,3.37
2018-07-14T11:18:16.752Z,2.58
2018-07-14T11:20:45.865Z,2.90
2018-07-14T11:23:15.145Z,2.92
2018-07-14T11:25:44.349Z,3.10
2018-07-14T11:28:13.538Z,3.10
2018-07-14T11:30:42.821Z,2.98
2018-07-14T11:33:11.895Z,2.87
2018-07-14T11:35:41.190Z,3.37
2018-07-14T11:38:10.467Z,3.35
2018-07-14T11:40:40.272Z,2.77
2018-07-14T11:43:09.723Z,2.83
2018-07-14T11:45:38.580Z,3.25
2018-07-14T11:48:07.451Z,3.10
2018-07-14T11:50:36.492Z,3.00
2018-07-14T11:53:05.757Z,3.37
2018-07-14T11:55:34.968Z,3.30
2018-07-14T11:58:04.215Z,2.62
2018-07-14T12:00:33.168Z,3.20
2018-07-14T12:03:01.974Z,2.77
2018-07-14T12:05:30.926Z,3.37
2018-07-14T12:08:00.272Z,3.05
2018-07-14T12:10:29.414Z,3.15
2018-07-14T12:12:58.649Z,3.22
2018-07-14T12:15:27.984Z,2.80
2018-07-14T12:17:57.183Z,3.05
2018-07-14T12:20:26.501Z,3.67
2018-07-14T12:22:55.745Z,2.90
2018-07-14T12:25:24.900Z,3.02
2018-07-14T12:27:53.834Z,2.50
2018-07-14T12:30:22.921Z,2.80
2018-07-14T12:32:51.941Z,3.12
2018-07-14T12:35:21.118Z,2.87
2018-07-14T12:37:50.213Z,2.70
2018-07-14T12:40:19.445Z,3.00
2018-07-14T12:42:48.599Z,2.85
2018-07-14T12:45:17.518Z,3.35
2018-07-14T12:47:46.322Z,2.85
2018-07-14T12:50:15.394Z,3.08
2018-07-14T12:52:44.761Z,2.92
2018-07-14T12:55:14.006Z,3.10
2018-07-14T12:57:43.086Z,3.10
2018-07-14T13:00:12.527Z,2.72
2018-07-14T13:02:41.590Z,2.80
2018-07-14T13:05:10.856Z,2.70
2018-07-14T13:07:40.094Z,2.67
2018-07-14T13:10:09.352Z,3.00
2018-07-14T13:12:38.320Z,3.00
2018-07-14T13:15:07.924Z,3.17
2018-07-14T13:17:37.222Z,2.83
2018-07-14T13:20:06.380Z,2.65
2018-07-14T13:22:35.615Z,2.75
2018-07-14T13:25:04.576Z,2.83
2018-07-14T13:27:33.753Z,3.22
2018-07-14T13:30:03.111Z,2.87
2018-07-14T13:32:32.377Z,2.77
2018-07-14T13:35:01.668Z,3.00
2018-07-14T13:37:30.963Z,3.45
2018-07-14T13:40:00.224Z,3.12
2018-07-14T13:42:29.512Z,3.02
2018-07-14T13:44:58.807Z,3.08
2018-07-14T13:47:28.069Z,3.12
2018-07-14T13:49:57.246Z,3.00
2018-07-14T13:52:26.659Z,3.52
2018-07-14T13:54:55.844Z,3.00
2018-07-14T13:57:25.141Z,2.92
2018-07-14T13:59:54.353Z,2.90
2018-07-14T14:02:23.661Z,2.90
2018-07-14T14:04:53.019Z,3.20
2018-07-14T14:07:22.332Z,2.87
2018-07-14T14:09:51.597Z,3.40
2018-07-14T14:12:20.826Z,2.70
2018-07-14T14:14:50.150Z,3.50
2018-07-14T14:17:19.611Z,2.80
2018-07-14T14:19:49.003Z,3.10
2018-07-14T14:22:18.263Z,2.85
2018-07-14T14:24:47.530Z,2.85
2018-07-14T14:27:16.599Z,2.98
2018-07-14T14:29:45.774Z,3.15
2018-07-14T14:32:15.175Z,3.08
2018-07-14T14:34:44.501Z,3.47
2018-07-14T14:37:13.671Z,3.02
2018-07-14T14:39:43.045Z,2.92
2018-07-14T14:42:12.241Z,2.98
2018-07-14T14:44:41.368Z,3.10
2018-07-14T14:47:10.724Z,3.30
2018-07-14T14:49:40.039Z,2.90
2018-07-14T14:52:09.300Z,3.35
2018-07-14T14:54:38.465Z,3.15
2018-07-14T14:57:07.890Z,3.55
2018-07-14T14:59:37.019Z,3.15
2018-07-14T15:02:06.792Z,3.02
2018-07-14T15:04:36.139Z,2.90
2018-07-14T15:07:05.473Z,3.22
2018-07-14T15:09:34.758Z,3.00
2018-07-14T15:12:04.107Z,3.15
2018-07-14T15:14:33.338Z,3.10
2018-07-14T15:17:02.611Z,3.10
2018-07-14T15:19:31.838Z,3.10
2018-07-14T15:22:01.273Z,3.77
2018-07-14T15:24:30.630Z,3.35
2018-07-14T15:26:59.455Z,3.45
2018-07-14T15:29:28.687Z,3.70
2018-07-14T15:31:57.615Z,3.58
2018-07-14T15:34:26.742Z,3.52
2018-07-14T15:36:55.952Z,3.17
2018-07-14T15:39:25.134Z,3.27
2018-07-14T15:41:54.453Z,3.45
2018-07-14T15:44:23.783Z,2.90
2018-07-14T15:46:53.163Z,2.85
2018-07-14T15:49:22.076Z,2.50
2018-07-14T15:51:51.249Z,2.75
2018-07-14T15:54:20.495Z,3.00
2018-07-14T15:56:49.792Z,3.08
2018-07-14T15:59:19.109Z,2.80
2018-07-14T16:01:48.172Z,3.20
2018-07-14T16:04:17.208Z,3.00
2018-07-14T16:06:46.420Z,3.00
2018-07-14T16:09:15.768Z,3.27
2018-07-14T16:11:44.960Z,3.08
2018-07-14T16:14:14.293Z,3.98
2018-07-14T16:16:43.675Z,3.17
2018-07-14T16:19:12.959Z,3.33
2018-07-14T16:21:42.286Z,3.05
2018-07-14T16:24:11.693Z,3.20
2018-07-14T16:26:40.849Z,2.87
2018-07-14T16:29:10.186Z,3.58
2018-07-14T16:31:39.428Z,3.40
2018-07-14T16:34:08.621Z,3.12
2018-07-14T16:36:38.184Z,3.65
2018-07-14T16:39:09.068Z,4.00
2018-07-14T16:41:38.590Z,4.55
2018-07-14T16:44:07.856Z,5.58
2018-07-14T16:46:37.221Z,5.22
2018-07-14T16:49:06.919Z,3.00
2018-07-14T16:51:36.410Z,3.35
2018-07-14T16:54:06.365Z,3.20
2018-07-14T16:56:36.348Z,3.50
2018-07-14T16:59:06.025Z,2.67
2018-07-14T17:01:35.394Z,3.30
2018-07-14T17:04:04.660Z,3.10
2018-07-14T17:06:34.443Z,3.15
2018-07-14T17:09:05.134Z,3.37
2018-07-14T17:11:34.959Z,3.35
2018-07-14T17:14:05.271Z,3.10
2018-07-14T17:16:35.061Z,3.30
2018-07-14T17:19:05.148Z,3.77
2018-07-14T17:21:35.022Z,3.92
2018-07-14T17:24:05.169Z,3.02
2018-07-14T17:26:35.146Z,4.10
2018-07-14T17:29:05.171Z,3.65
2018-07-14T17:31:34.938Z,3.27
2018-07-14T17:34:05.036Z,3.35
2018-07-14T17:36:34.609Z,2.85
2018-07-14T17:39:05.116Z,3.45
2018-07-14T17:41:35.429Z,3.70
2018-07-14T17:44:05.769Z,3.80
2018-07-14T17:46:35.315Z,3.50
2018-07-14T17:49:05.051Z,3.90
2018-07-14T17:51:35.036Z,3.37
2018-07-14T17:54:04.805Z,3.77
2018-07-14T17:56:34.907Z,3.58
2018-07-14T17:59:04.446Z,3.70
2018-07-14T18:01:34.459Z,4.35
2018-07-14T18:04:06.515Z,4.37
2018-07-14T18:06:37.059Z,3.80
2018-07-14T18:09:08.365Z,4.12
2018-07-14T18:11:39.295Z,3.92
2018-07-14T18:14:09.503Z,3.90
2018-07-14T18:16:39.899Z,4.05
2018-07-14T18:19:09.925Z,4.12
2018-07-14T18:21:39.510Z,4.22
2018-07-14T18:24:09.663Z,3.77
2018-07-14T18:26:39.545Z,4.30
2018-07-14T18:29:09.479Z,3.80
2018-07-14T18:31:38.772Z,4.17
2018-07-14T18:34:08.038Z,4.33
2018-07-14T18:36:38.214Z,4.20
2018-07-14T18:39:09.198Z,5.03
2018-07-14T18:41:38.610Z,5.40
2018-07-14T18:44:08.305Z,5.40
2018-07-14T18:46:38.744Z,5.87
2018-07-14T18:49:08.474Z,5.37
2018-07-14T18:51:38.249Z,6.37
2018-07-14T18:54:08.064Z,5.93
2018-07-14T18:56:38.430Z,5.67
2018-07-14T18:59:08.548Z,5.93
2018-07-14T19:01:39.021Z,6.40
2018-07-14T19:04:09.180Z,6.30
2018-07-14T19:06:39.335Z,5.90
2018-07-14T19:09:09.252Z,5.67
2018-07-14T19:11:39.630Z,5.60
2018-07-14T19:14:09.451Z,5.70
2018-07-14T19:16:39.194Z,5.87
2018-07-14T19:19:08.876Z,5.50
2018-07-14T19:21:39.003Z,6.20
2018-07-14T19:24:08.585Z,5.77
2018-07-14T19:26:38.711Z,6.37
2018-07-14T19:29:08.167Z,5.77
2018-07-14T19:31:37.770Z,5.63
2018-07-14T19:34:07.259Z,6.00
2018-07-14T19:36:36.993Z,6.13
2018-07-14T19:39:07.562Z,6.47
2018-07-14T19:41:37.165Z,6.33
2018-07-14T19:44:06.943Z,6.53
2018-07-14T19:46:36.878Z,6.50
2018-07-14T19:49:06.954Z,6.77
2018-07-14T19:51:37.042Z,6.83
2018-07-14T19:54:07.233Z,6.87
2018-07-14T19:56:37.582Z,7.60
2018-07-14T19:59:08.021Z,7.17
2018-07-14T20:01:38.441Z,7.27
2018-07-14T20:04:34.559Z,7.40
2018-07-14T20:07:04.938Z,6.77
2018-07-14T20:09:35.114Z,7.27
2018-07-14T20:12:04.902Z,7.47
2018-07-14T20:14:35.296Z,7.23
2018-07-14T20:17:05.359Z,6.93
2018-07-14T20:19:35.534Z,7.80
2018-07-14T20:22:05.591Z,6.83
2018-07-14T20:24:35.736Z,8.30
2018-07-14T20:27:06.668Z,8.07
2018-07-14T20:29:36.830Z,7.50
2018-07-14T20:32:06.913Z,6.67
2018-07-14T20:34:37.092Z,6.73
2018-07-14T20:37:07.513Z,6.90
2018-07-14T20:39:37.530Z,6.77
2018-07-14T20:42:07.505Z,7.50
2018-07-14T20:44:38.241Z,7.00
2018-07-14T20:47:07.915Z,7.10
2018-07-14T20:49:37.857Z,7.60
2018-07-14T20:52:07.664Z,7.10
2018-07-14T20:54:38.012Z,6.20
2018-07-14T20:57:08.348Z,6.97
2018-07-14T20:59:38.313Z,5.37
2018-07-14T21:02:08.711Z,6.30
2018-07-14T21:04:38.698Z,5.90
2018-07-14T21:07:08.832Z,6.17
2018-07-14T21:09:38.894Z,5.97
2018-07-14T21:12:09.649Z,8.93
2018-07-14T21:14:39.945Z,7.77
2018-07-14T21:17:10.347Z,6.40
2018-07-14T21:19:40.181Z,7.60
2018-07-14T21:22:10.603Z,6.87
2018-07-14T21:24:39.968Z,6.30
2018-07-14T21:27:09.130Z,7.00
2018-07-14T21:29:38.248Z,6.20
2018-07-14T21:32:07.432Z,7.17
2018-07-14T21:34:36.647Z,7.30
2018-07-14T21:37:05.828Z,6.27
2018-07-14T21:39:35.255Z,6.53
2018-07-14T21:42:04.465Z,7.73
2018-07-14T21:44:33.821Z,7.37
2018-07-14T21:47:03.024Z,7.63
2018-07-14T21:49:32.306Z,7.80
2018-07-14T21:52:01.659Z,8.67
2018-07-14T21:54:30.921Z,8.87
2018-07-14T21:57:00.137Z,8.30
2018-07-14T21:59:29.310Z,7.63
2018-07-14T22:01:58.798Z,7.90
2018-07-14T22:04:28.231Z,8.50
2018-07-14T22:06:57.425Z,8.53
2018-07-14T22:09:27.107Z,8.70
2018-07-14T22:11:56.380Z,8.30
2018-07-14T22:14:25.677Z,9.07
2018-07-14T22:16:55.065Z,9.27
2018-07-14T22:19:24.216Z,9.47
2018-07-14T22:21:53.439Z,8.47
2018-07-14T22:24:22.658Z,9.87
2018-07-14T22:26:52.206Z,9.37
2018-07-14T22:29:21.320Z,9.23
2018-07-14T22:31:50.744Z,9.43
2018-07-14T22:34:20.311Z,8.87
2018-07-14T22:36:49.658Z,9.03
2018-07-14T22:39:18.552Z,9.43
2018-07-14T22:41:48.725Z,8.10
2018-07-14T22:44:19.105Z,9.40
2018-07-14T22:46:48.861Z,9.30
2018-07-14T22:49:18.050Z,9.00
2018-07-14T22:51:47.164Z,9.73
2018-07-14T22:54:16.292Z,10.83
2018-07-14T22:56:45.347Z,9.50
2018-07-14T22:59:14.515Z,9.67
2018-07-14T23:01:43.749Z,9.00
2018-07-14T23:04:12.921Z,9.67
2018-07-14T23:06:42.226Z,11.10
2018-07-14T23:09:11.317Z,10.37
2018-07-14T23:11:40.624Z,10.07
2018-07-14T23:14:09.978Z,10.03
2018-07-14T23:16:39.110Z,10.80
2018-07-14T23:19:08.221Z,10.40
2018-07-14T23:21:37.740Z,10.27
2018-07-14T23:24:06.617Z,9.50
2018-07-14T23:26:35.853Z,10.73
2018-07-14T23:29:05.210Z,8.57
2018-07-14T23:31:34.454Z,9.93
2018-07-14T23:34:03.730Z,10.70
2018-07-14T23:36:33.046Z,10.30
2018-07-14T23:39:02.195Z,9.63
2018-07-14T23:41:31.305Z,10.50
2018-07-14T23:44:00.573Z,10.73
2018-07-14T23:46:29.694Z,10.80
2018-07-14T23:48:58.750Z,9.57
2018-07-14T23:51:27.903Z,10.50
2018-07-14T23:53:56.702Z,10.60
2018-07-14T23:56:25.527Z,10.93
2018-07-14T23:58:54.717Z,9.67
